sensor_id;sensor_type;location;lat;lon;timestamp;pressure;altitude;pressure_sealevel;temperature;humidity
64644;BME280;51056;50.330;7.914;2023-10-31T00:02:23;98834.13;;;12.48;92.94
64644;BME280;51056;50.330;7.914;2023-10-31T00:05:26;98823.34;;;12.42;93.02
64644;BME280;51056;50.330;7.914;2023-10-31T00:08:29;98828.31;;;12.45;92.34
64644;BME280;51056;50.330;7.914;2023-10-31T00:11:31;98831.88;;;12.44;92.40
64644;BME280;51056;50.330;7.914;2023-10-31T00:14:34;98834.91;;;12.39;91.82
64644;BME280;51056;50.330;7.914;2023-10-31T00:17:38;98848.13;;;12.38;91.71
64644;BME280;51056;50.330;7.914;2023-10-31T00:20:41;98839.59;;;12.36;92.00
64644;BME280;51056;50.330;7.914;2023-10-31T00:23:45;98845.09;;;12.32;92.87
64644;BME280;51056;50.330;7.914;2023-10-31T00:26:48;98852.00;;;12.33;92.89
64644;BME280;51056;50.330;7.914;2023-10-31T00:29:51;98850.34;;;12.32;92.41
64644;BME280;51056;50.330;7.914;2023-10-31T00:32:54;98857.75;;;12.27;92.13
64644;BME280;51056;50.330;7.914;2023-10-31T00:35:58;98854.13;;;12.19;92.56
64644;BME280;51056;50.330;7.914;2023-10-31T00:39:01;98856.41;;;12.33;92.87
64644;BME280;51056;50.330;7.914;2023-10-31T00:42:04;98862.88;;;12.29;92.38
64644;BME280;51056;50.330;7.914;2023-10-31T00:45:08;98863.25;;;12.24;91.06
64644;BME280;51056;50.330;7.914;2023-10-31T00:48:11;98866.41;;;12.18;91.55
64644;BME280;51056;50.330;7.914;2023-10-31T00:51:14;98860.78;;;12.23;91.93
64644;BME280;51056;50.330;7.914;2023-10-31T00:54:17;98869.84;;;12.19;90.76
64644;BME280;51056;50.330;7.914;2023-10-31T00:57:20;98870.41;;;12.13;90.63
64644;BME280;51056;50.330;7.914;2023-10-31T01:00:23;98875.75;;;12.11;90.52
64644;BME280;51056;50.330;7.914;2023-10-31T01:03:27;98876.41;;;12.03;90.79
64644;BME280;51056;50.330;7.914;2023-10-31T01:06:31;98883.56;;;12.01;91.39
64644;BME280;51056;50.330;7.914;2023-10-31T01:09:35;98879.34;;;11.89;90.39
64644;BME280;51056;50.330;7.914;2023-10-31T01:12:38;98874.94;;;11.90;90.16
64644;BME280;51056;50.330;7.914;2023-10-31T01:15:41;98883.50;;;11.92;90.30
64644;BME280;51056;50.330;7.914;2023-10-31T01:18:44;98879.72;;;12.05;90.84
64644;BME280;51056;50.330;7.914;2023-10-31T01:21:47;98891.72;;;12.08;90.86
64644;BME280;51056;50.330;7.914;2023-10-31T01:24:50;98886.91;;;12.03;89.91
64644;BME280;51056;50.330;7.914;2023-10-31T01:27:53;98888.94;;;12.00;89.59
64644;BME280;51056;50.330;7.914;2023-10-31T01:30:56;98891.56;;;12.00;89.13
64644;BME280;51056;50.330;7.914;2023-10-31T01:33:58;98889.00;;;11.89;88.97
64644;BME280;51056;50.330;7.914;2023-10-31T01:37:02;98906.63;;;11.86;89.56
64644;BME280;51056;50.330;7.914;2023-10-31T01:40:05;98899.47;;;11.89;89.80
64644;BME280;51056;50.330;7.914;2023-10-31T01:43:10;98897.31;;;11.94;89.97
64644;BME280;51056;50.330;7.914;2023-10-31T01:46:13;98891.00;;;11.64;91.45
64644;BME280;51056;50.330;7.914;2023-10-31T01:49:16;98898.41;;;11.59;91.10
64644;BME280;51056;50.330;7.914;2023-10-31T01:52:20;98906.47;;;11.67;90.19
64644;BME280;51056;50.330;7.914;2023-10-31T01:55:23;98923.84;;;11.68;90.33
64644;BME280;51056;50.330;7.914;2023-10-31T01:58:32;98934.44;;;11.67;89.14
64644;BME280;51056;50.330;7.914;2023-10-31T02:01:38;98931.22;;;11.63;88.96
64644;BME280;51056;50.330;7.914;2023-10-31T02:04:45;98932.88;;;11.64;88.84
64644;BME280;51056;50.330;7.914;2023-10-31T02:07:48;98919.88;;;11.53;89.50
64644;BME280;51056;50.330;7.914;2023-10-31T02:10:51;98926.75;;;11.54;89.28
64644;BME280;51056;50.330;7.914;2023-10-31T02:13:55;98936.16;;;11.56;88.07
64644;BME280;51056;50.330;7.914;2023-10-31T02:16:59;98937.22;;;11.54;88.16
64644;BME280;51056;50.330;7.914;2023-10-31T02:20:02;98942.53;;;11.63;88.09
64644;BME280;51056;50.330;7.914;2023-10-31T02:23:06;98938.38;;;11.61;88.18
64644;BME280;51056;50.330;7.914;2023-10-31T02:26:10;98943.34;;;11.64;88.33
64644;BME280;51056;50.330;7.914;2023-10-31T02:29:12;98943.84;;;11.58;87.55
64644;BME280;51056;50.330;7.914;2023-10-31T02:32:15;98952.09;;;11.53;87.33
64644;BME280;51056;50.330;7.914;2023-10-31T02:35:18;98943.16;;;11.56;88.35
64644;BME280;51056;50.330;7.914;2023-10-31T02:38:21;98956.84;;;11.59;87.23
64644;BME280;51056;50.330;7.914;2023-10-31T02:41:36;98954.75;;;11.74;87.19
64644;BME280;51056;50.330;7.914;2023-10-31T02:44:39;98958.66;;;11.48;87.07
64644;BME280;51056;50.330;7.914;2023-10-31T02:47:43;98962.00;;;11.50;88.01
64644;BME280;51056;50.330;7.914;2023-10-31T02:50:45;98961.16;;;11.49;87.19
64644;BME280;51056;50.330;7.914;2023-10-31T02:53:49;98956.63;;;11.51;87.34
64644;BME280;51056;50.330;7.914;2023-10-31T02:56:52;98954.72;;;11.53;87.52
64644;BME280;51056;50.330;7.914;2023-10-31T02:59:55;98954.94;;;11.61;86.56
64644;BME280;51056;50.330;7.914;2023-10-31T03:02:58;98950.78;;;11.59;85.92
64644;BME280;51056;50.330;7.914;2023-10-31T03:06:01;98947.03;;;11.73;86.21
64644;BME280;51056;50.330;7.914;2023-10-31T03:09:05;98954.81;;;11.52;86.49
64644;BME280;51056;50.330;7.914;2023-10-31T03:12:08;98951.03;;;11.56;86.98
64644;BME280;51056;50.330;7.914;2023-10-31T03:15:12;98966.34;;;11.60;87.04
64644;BME280;51056;50.330;7.914;2023-10-31T03:18:15;98973.44;;;11.70;87.31
64644;BME280;51056;50.330;7.914;2023-10-31T03:21:18;98974.78;;;11.64;88.16
64644;BME280;51056;50.330;7.914;2023-10-31T03:24:21;98982.59;;;11.75;88.55
64644;BME280;51056;50.330;7.914;2023-10-31T03:27:24;98978.50;;;11.82;88.78
64644;BME280;51056;50.330;7.914;2023-10-31T03:30:27;98978.31;;;11.85;86.79
64644;BME280;51056;50.330;7.914;2023-10-31T03:33:30;98980.72;;;11.66;87.42
64644;BME280;51056;50.330;7.914;2023-10-31T03:36:33;98975.50;;;11.55;86.49
64644;BME280;51056;50.330;7.914;2023-10-31T03:39:37;98973.91;;;11.43;86.92
64644;BME280;51056;50.330;7.914;2023-10-31T03:42:39;98992.44;;;11.51;88.62
64644;BME280;51056;50.330;7.914;2023-10-31T03:45:42;98996.38;;;11.45;88.62
64644;BME280;51056;50.330;7.914;2023-10-31T03:48:45;98995.09;;;11.39;87.75
64644;BME280;51056;50.330;7.914;2023-10-31T03:51:49;99003.38;;;11.56;87.78
64644;BME280;51056;50.330;7.914;2023-10-31T03:54:52;99003.72;;;11.62;87.57
64644;BME280;51056;50.330;7.914;2023-10-31T03:57:55;99004.59;;;11.40;86.63
64644;BME280;51056;50.330;7.914;2023-10-31T04:00:59;99003.88;;;11.50;88.13
64644;BME280;51056;50.330;7.914;2023-10-31T04:04:02;99011.81;;;11.48;89.10
64644;BME280;51056;50.330;7.914;2023-10-31T04:10:16;99013.28;;;11.52;88.32
64644;BME280;51056;50.330;7.914;2023-10-31T04:13:19;99026.44;;;11.62;88.42
64644;BME280;51056;50.330;7.914;2023-10-31T05:50:15;99095.97;;;11.21;87.72
64644;BME280;51056;50.330;7.914;2023-10-31T05:53:18;99086.22;;;11.34;87.04
64644;BME280;51056;50.330;7.914;2023-10-31T05:56:24;99099.78;;;11.28;87.05
64644;BME280;51056;50.330;7.914;2023-10-31T05:59:27;99093.47;;;11.20;87.25
64644;BME280;51056;50.330;7.914;2023-10-31T06:02:31;99097.28;;;11.15;87.74
64644;BME280;51056;50.330;7.914;2023-10-31T06:05:34;99105.47;;;11.22;87.54
64644;BME280;51056;50.330;7.914;2023-10-31T06:08:38;99112.88;;;11.17;87.42
64644;BME280;51056;50.330;7.914;2023-10-31T06:11:48;99110.47;;;11.25;87.95
64644;BME280;51056;50.330;7.914;2023-10-31T06:14:51;99114.28;;;11.21;86.95
64644;BME280;51056;50.330;7.914;2023-10-31T06:17:54;99121.78;;;11.26;86.93
64644;BME280;51056;50.330;7.914;2023-10-31T06:20:58;99128.78;;;11.25;87.12
64644;BME280;51056;50.330;7.914;2023-10-31T06:24:01;99130.47;;;11.37;87.75
64644;BME280;51056;50.330;7.914;2023-10-31T06:27:05;99135.72;;;11.49;85.93
64644;BME280;51056;50.330;7.914;2023-10-31T06:30:08;99139.97;;;11.50;85.83
64644;BME280;51056;50.330;7.914;2023-10-31T06:33:11;99144.63;;;11.46;85.41
64644;BME280;51056;50.330;7.914;2023-10-31T06:36:15;99137.59;;;11.47;85.35
64644;BME280;51056;50.330;7.914;2023-10-31T06:39:17;99147.34;;;11.45;85.66
64644;BME280;51056;50.330;7.914;2023-10-31T06:42:21;99149.03;;;11.46;85.24
64644;BME280;51056;50.330;7.914;2023-10-31T06:45:23;99156.38;;;11.63;84.22
64644;BME280;51056;50.330;7.914;2023-10-31T06:48:28;99168.63;;;11.51;84.63
64644;BME280;51056;50.330;7.914;2023-10-31T06:51:31;99180.44;;;11.68;83.89
64644;BME280;51056;50.330;7.914;2023-10-31T06:54:34;99187.56;;;11.55;84.49
64644;BME280;51056;50.330;7.914;2023-10-31T06:57:38;99190.78;;;11.81;83.81
64644;BME280;51056;50.330;7.914;2023-10-31T07:00:41;99205.81;;;11.90;83.89
64644;BME280;51056;50.330;7.914;2023-10-31T07:03:44;99210.16;;;11.67;83.57
64644;BME280;51056;50.330;7.914;2023-10-31T07:06:47;99214.69;;;11.76;82.81
64644;BME280;51056;50.330;7.914;2023-10-31T07:10:35;99226.47;;;11.71;84.03
64644;BME280;51056;50.330;7.914;2023-10-31T07:13:22;99225.66;;;11.59;83.97
64644;BME280;51056;50.330;7.914;2023-10-31T07:16:26;99227.16;;;11.39;84.71
64644;BME280;51056;50.330;7.914;2023-10-31T07:19:29;99244.09;;;11.46;85.13
64644;BME280;51056;50.330;7.914;2023-10-31T07:22:32;99244.06;;;11.24;86.28
64644;BME280;51056;50.330;7.914;2023-10-31T07:25:37;99244.88;;;11.24;86.75
64644;BME280;51056;50.330;7.914;2023-10-31T07:28:40;99245.63;;;11.37;86.97
64644;BME280;51056;50.330;7.914;2023-10-31T07:31:43;99249.41;;;11.33;85.61
64644;BME280;51056;50.330;7.914;2023-10-31T07:34:46;99260.28;;;11.05;87.51
64644;BME280;51056;50.330;7.914;2023-10-31T07:37:50;99260.44;;;11.14;87.91
64644;BME280;51056;50.330;7.914;2023-10-31T07:40:52;99268.16;;;11.16;87.33
64644;BME280;51056;50.330;7.914;2023-10-31T07:43:55;99272.88;;;11.00;88.51
64644;BME280;51056;50.330;7.914;2023-10-31T07:46:58;99265.75;;;11.02;89.19
64644;BME280;51056;50.330;7.914;2023-10-31T07:50:01;99276.47;;;11.10;89.68
64644;BME280;51056;50.330;7.914;2023-10-31T07:53:05;99283.22;;;11.36;91.18
64644;BME280;51056;50.330;7.914;2023-10-31T07:56:18;99279.47;;;11.74;90.07
64644;BME280;51056;50.330;7.914;2023-10-31T07:59:26;99274.50;;;11.94;89.07
64644;BME280;51056;50.330;7.914;2023-10-31T08:26:06;99288.28;;;12.18;85.03
64644;BME280;51056;50.330;7.914;2023-10-31T08:29:09;99293.06;;;12.02;83.30
64644;BME280;51056;50.330;7.914;2023-10-31T08:32:12;99304.38;;;12.02;83.88
64644;BME280;51056;50.330;7.914;2023-10-31T08:35:14;99310.81;;;11.98;84.05
64644;BME280;51056;50.330;7.914;2023-10-31T08:38:18;99319.97;;;11.93;83.08
64644;BME280;51056;50.330;7.914;2023-10-31T08:41:21;99321.63;;;12.05;83.17
64644;BME280;51056;50.330;7.914;2023-10-31T08:44:25;99316.88;;;12.10;82.71
64644;BME280;51056;50.330;7.914;2023-10-31T08:47:28;99330.69;;;12.01;84.21
64644;BME280;51056;50.330;7.914;2023-10-31T08:50:31;99327.47;;;11.86;82.33
64644;BME280;51056;50.330;7.914;2023-10-31T08:53:34;99326.19;;;12.03;81.66
64644;BME280;51056;50.330;7.914;2023-10-31T08:56:37;99330.00;;;12.10;80.79
64644;BME280;51056;50.330;7.914;2023-10-31T08:59:41;99337.50;;;12.03;81.75
64644;BME280;51056;50.330;7.914;2023-10-31T09:02:43;99339.50;;;12.11;81.68
64644;BME280;51056;50.330;7.914;2023-10-31T09:05:47;99340.22;;;12.13;80.82
64644;BME280;51056;50.330;7.914;2023-10-31T09:08:49;99351.53;;;12.25;81.65
64644;BME280;51056;50.330;7.914;2023-10-31T09:11:52;99352.03;;;12.30;82.19
64644;BME280;51056;50.330;7.914;2023-10-31T09:14:56;99363.34;;;12.19;79.38
64644;BME280;51056;50.330;7.914;2023-10-31T09:17:59;99366.66;;;11.99;80.11
64644;BME280;51056;50.330;7.914;2023-10-31T09:21:02;99377.97;;;11.99;79.66
64644;BME280;51056;50.330;7.914;2023-10-31T09:24:06;99381.00;;;11.82;79.82
64644;BME280;51056;50.330;7.914;2023-10-31T09:27:09;99383.66;;;11.93;80.05
64644;BME280;51056;50.330;7.914;2023-10-31T09:30:13;99397.03;;;12.01;79.54
64644;BME280;51056;50.330;7.914;2023-10-31T09:33:16;99391.41;;;11.95;79.67
64644;BME280;51056;50.330;7.914;2023-10-31T09:36:19;99390.22;;;11.88;79.30
64644;BME280;51056;50.330;7.914;2023-10-31T09:39:22;99408.34;;;12.02;79.66
64644;BME280;51056;50.330;7.914;2023-10-31T09:42:28;99405.56;;;11.92;78.94
64644;BME280;51056;50.330;7.914;2023-10-31T09:45:31;99404.78;;;12.37;81.37
64644;BME280;51056;50.330;7.914;2023-10-31T09:48:35;99393.94;;;12.07;77.65
64644;BME280;51056;50.330;7.914;2023-10-31T09:51:38;99399.31;;;12.17;78.85
64644;BME280;51056;50.330;7.914;2023-10-31T09:54:41;99408.34;;;12.02;79.07
64644;BME280;51056;50.330;7.914;2023-10-31T09:57:45;99404.44;;;11.83;78.88
64644;BME280;51056;50.330;7.914;2023-10-31T10:00:48;99413.13;;;11.73;79.30
64644;BME280;51056;50.330;7.914;2023-10-31T10:03:52;99402.91;;;11.81;78.99
64644;BME280;51056;50.330;7.914;2023-10-31T10:07:00;99415.00;;;11.95;78.27
64644;BME280;51056;50.330;7.914;2023-10-31T10:10:04;99398.38;;;11.83;78.87
64644;BME280;51056;50.330;7.914;2023-10-31T10:13:07;99405.72;;;11.91;78.33
64644;BME280;51056;50.330;7.914;2023-10-31T10:16:11;99406.44;;;12.04;78.37
64644;BME280;51056;50.330;7.914;2023-10-31T10:22:19;99395.03;;;12.16;77.34
64644;BME280;51056;50.330;7.914;2023-10-31T10:25:23;99410.75;;;12.39;76.89
64644;BME280;51056;50.330;7.914;2023-10-31T10:28:27;99407.78;;;12.43;77.41
64644;BME280;51056;50.330;7.914;2023-10-31T10:31:32;99407.56;;;12.35;76.67
64644;BME280;51056;50.330;7.914;2023-10-31T10:34:36;99410.88;;;12.48;75.59
64644;BME280;51056;50.330;7.914;2023-10-31T10:37:39;99421.25;;;12.61;75.79
64644;BME280;51056;50.330;7.914;2023-10-31T10:40:43;99406.44;;;12.71;75.97
64644;BME280;51056;50.330;7.914;2023-10-31T10:43:47;99425.78;;;12.70;75.31
64644;BME280;51056;50.330;7.914;2023-10-31T10:46:54;99426.69;;;12.92;74.24
64644;BME280;51056;50.330;7.914;2023-10-31T10:49:59;99430.06;;;12.60;74.89
64644;BME280;51056;50.330;7.914;2023-10-31T10:53:06;99420.19;;;12.41;75.05
64644;BME280;51056;50.330;7.914;2023-10-31T10:56:13;99416.47;;;12.55;74.68
64644;BME280;51056;50.330;7.914;2023-10-31T10:59:20;99430.53;;;12.43;74.65
64644;BME280;51056;50.330;7.914;2023-10-31T11:02:24;99416.00;;;12.39;74.91
64644;BME280;51056;50.330;7.914;2023-10-31T11:05:29;99422.19;;;12.49;73.79
64644;BME280;51056;50.330;7.914;2023-10-31T11:08:33;99417.41;;;12.31;74.09
64644;BME280;51056;50.330;7.914;2023-10-31T11:11:37;99422.09;;;12.39;74.17
64644;BME280;51056;50.330;7.914;2023-10-31T11:14:40;99417.44;;;12.43;73.94
64644;BME280;51056;50.330;7.914;2023-10-31T11:17:44;99418.50;;;12.40;72.93
64644;BME280;51056;50.330;7.914;2023-10-31T11:20:48;99412.56;;;12.38;72.67
64644;BME280;51056;50.330;7.914;2023-10-31T11:23:58;99424.59;;;12.52;72.57
64644;BME280;51056;50.330;7.914;2023-10-31T11:27:03;99419.22;;;12.53;71.65
64644;BME280;51056;50.330;7.914;2023-10-31T11:30:07;99432.19;;;12.44;72.84
64644;BME280;51056;50.330;7.914;2023-10-31T11:33:13;99444.94;;;12.82;71.57
64644;BME280;51056;50.330;7.914;2023-10-31T11:36:16;99431.97;;;12.69;71.66
64644;BME280;51056;50.330;7.914;2023-10-31T11:39:22;99427.44;;;12.71;71.53
64644;BME280;51056;50.330;7.914;2023-10-31T11:42:31;99420.34;;;13.06;71.32
64644;BME280;51056;50.330;7.914;2023-10-31T11:45:35;99419.78;;;13.02;70.38
64644;BME280;51056;50.330;7.914;2023-10-31T11:48:48;99423.09;;;13.04;71.46
64644;BME280;51056;50.330;7.914;2023-10-31T11:51:51;99423.38;;;12.90;71.70
64644;BME280;51056;50.330;7.914;2023-10-31T11:54:54;99416.66;;;13.08;71.33
64644;BME280;51056;50.330;7.914;2023-10-31T11:57:58;99418.31;;;12.98;70.23
64644;BME280;51056;50.330;7.914;2023-10-31T12:01:02;99425.84;;;13.02;70.59
64644;BME280;51056;50.330;7.914;2023-10-31T12:04:06;99418.19;;;13.11;69.36
64644;BME280;51056;50.330;7.914;2023-10-31T12:07:09;99418.66;;;13.04;70.00
64644;BME280;51056;50.330;7.914;2023-10-31T12:10:12;99414.38;;;13.15;70.41
64644;BME280;51056;50.330;7.914;2023-10-31T12:13:15;99423.31;;;13.12;69.70
64644;BME280;51056;50.330;7.914;2023-10-31T12:16:18;99413.75;;;13.11;69.26
64644;BME280;51056;50.330;7.914;2023-10-31T12:19:21;99431.66;;;13.29;69.42
64644;BME280;51056;50.330;7.914;2023-10-31T12:22:25;99424.72;;;13.16;69.18
64644;BME280;51056;50.330;7.914;2023-10-31T12:25:27;99437.75;;;13.07;69.63
64644;BME280;51056;50.330;7.914;2023-10-31T12:28:30;99438.63;;;12.96;69.69
64644;BME280;51056;50.330;7.914;2023-10-31T12:31:34;99448.75;;;13.00;70.00
64644;BME280;51056;50.330;7.914;2023-10-31T12:34:42;99455.06;;;12.98;70.08
64644;BME280;51056;50.330;7.914;2023-10-31T12:37:46;99462.44;;;13.15;70.00
64644;BME280;51056;50.330;7.914;2023-10-31T12:40:50;99461.59;;;13.26;70.17
64644;BME280;51056;50.330;7.914;2023-10-31T12:43:53;99455.50;;;13.14;70.84
64644;BME280;51056;50.330;7.914;2023-10-31T12:46:56;99458.50;;;13.32;71.17
64644;BME280;51056;50.330;7.914;2023-10-31T12:53:10;99453.13;;;13.22;70.10
64644;BME280;51056;50.330;7.914;2023-10-31T12:59:37;99467.25;;;13.54;70.38
64644;BME280;51056;50.330;7.914;2023-10-31T13:02:41;99457.91;;;13.61;67.87
64644;BME280;51056;50.330;7.914;2023-10-31T13:05:45;99463.75;;;13.64;66.64
64644;BME280;51056;50.330;7.914;2023-10-31T13:08:48;99467.16;;;13.76;65.62
64644;BME280;51056;50.330;7.914;2023-10-31T13:11:51;99457.09;;;13.60;65.92
64644;BME280;51056;50.330;7.914;2023-10-31T13:14:54;99464.69;;;13.95;65.92
64644;BME280;51056;50.330;7.914;2023-10-31T13:17:57;99462.19;;;14.15;64.85
64644;BME280;51056;50.330;7.914;2023-10-31T13:21:00;99459.41;;;14.16;64.58
64644;BME280;51056;50.330;7.914;2023-10-31T13:24:03;99458.66;;;14.05;64.35
64644;BME280;51056;50.330;7.914;2023-10-31T13:27:07;99470.13;;;14.04;64.98
64644;BME280;51056;50.330;7.914;2023-10-31T13:30:11;99465.63;;;14.36;63.08
64644;BME280;51056;50.330;7.914;2023-10-31T13:33:14;99465.06;;;14.54;60.88
64644;BME280;51056;50.330;7.914;2023-10-31T13:36:17;99470.06;;;14.36;61.22
64644;BME280;51056;50.330;7.914;2023-10-31T13:39:21;99466.09;;;14.21;61.70
64644;BME280;51056;50.330;7.914;2023-10-31T13:42:25;99470.97;;;14.04;62.65
64644;BME280;51056;50.330;7.914;2023-10-31T13:45:28;99469.16;;;14.26;64.38
64644;BME280;51056;50.330;7.914;2023-10-31T13:48:32;99463.03;;;14.67;61.72
64644;BME280;51056;50.330;7.914;2023-10-31T13:51:35;99475.53;;;14.75;60.91
64644;BME280;51056;50.330;7.914;2023-10-31T13:54:38;99475.50;;;14.65;60.74
64644;BME280;51056;50.330;7.914;2023-10-31T13:57:41;99472.47;;;14.70;62.01
64644;BME280;51056;50.330;7.914;2023-10-31T14:00:45;99474.78;;;14.94;60.97
64644;BME280;51056;50.330;7.914;2023-10-31T14:03:49;99489.38;;;14.77;60.68
64644;BME280;51056;50.330;7.914;2023-10-31T14:06:53;99493.00;;;14.55;60.72
64644;BME280;51056;50.330;7.914;2023-10-31T14:09:56;99492.63;;;14.38;60.81
64644;BME280;51056;50.330;7.914;2023-10-31T14:12:59;99496.53;;;14.44;60.87
64644;BME280;51056;50.330;7.914;2023-10-31T14:16:02;99490.34;;;14.24;61.54
64644;BME280;51056;50.330;7.914;2023-10-31T14:19:06;99496.78;;;13.99;62.47
64644;BME280;51056;50.330;7.914;2023-10-31T14:22:12;99499.75;;;13.85;63.23
64644;BME280;51056;50.330;7.914;2023-10-31T14:25:16;99505.44;;;13.90;62.94
64644;BME280;51056;50.330;7.914;2023-10-31T14:28:20;99514.31;;;13.78;63.69
64644;BME280;51056;50.330;7.914;2023-10-31T14:31:23;99516.19;;;13.87;63.16
64644;BME280;51056;50.330;7.914;2023-10-31T14:34:25;99520.63;;;13.86;64.17
64644;BME280;51056;50.330;7.914;2023-10-31T14:37:28;99516.66;;;14.13;64.14
64644;BME280;51056;50.330;7.914;2023-10-31T14:40:31;99520.44;;;13.99;64.00
64644;BME280;51056;50.330;7.914;2023-10-31T14:43:34;99518.38;;;13.82;65.12
64644;BME280;51056;50.330;7.914;2023-10-31T14:46:37;99525.81;;;13.77;65.18
64644;BME280;51056;50.330;7.914;2023-10-31T14:49:40;99527.47;;;13.78;65.87
64644;BME280;51056;50.330;7.914;2023-10-31T14:52:44;99526.44;;;13.69;65.77
64644;BME280;51056;50.330;7.914;2023-10-31T14:55:46;99521.78;;;13.61;66.46
64644;BME280;51056;50.330;7.914;2023-10-31T14:58:50;99532.00;;;13.43;67.46
64644;BME280;51056;50.330;7.914;2023-10-31T15:01:52;99536.28;;;13.44;67.90
64644;BME280;51056;50.330;7.914;2023-10-31T15:04:56;99543.09;;;13.36;68.42
64644;BME280;51056;50.330;7.914;2023-10-31T15:07:59;99547.50;;;13.35;68.21
64644;BME280;51056;50.330;7.914;2023-10-31T15:11:02;99544.50;;;13.40;68.73
64644;BME280;51056;50.330;7.914;2023-10-31T15:14:06;99553.59;;;13.36;68.83
64644;BME280;51056;50.330;7.914;2023-10-31T15:17:09;99563.59;;;13.19;68.91
64644;BME280;51056;50.330;7.914;2023-10-31T15:20:12;99544.16;;;13.11;69.35
64644;BME280;51056;50.330;7.914;2023-10-31T15:23:16;99549.28;;;13.23;69.57
64644;BME280;51056;50.330;7.914;2023-10-31T15:26:19;99551.81;;;13.25;69.96
64644;BME280;51056;50.330;7.914;2023-10-31T15:29:23;99556.59;;;13.09;70.89
64644;BME280;51056;50.330;7.914;2023-10-31T15:32:26;99565.03;;;13.01;70.89
64644;BME280;51056;50.330;7.914;2023-10-31T15:35:29;99563.59;;;13.19;70.29
64644;BME280;51056;50.330;7.914;2023-10-31T15:38:33;99563.16;;;13.25;72.28
64644;BME280;51056;50.330;7.914;2023-10-31T15:41:36;99567.56;;;13.25;73.97
64644;BME280;51056;50.330;7.914;2023-10-31T15:44:39;99568.88;;;13.08;76.23
64644;BME280;51056;50.330;7.914;2023-10-31T15:47:43;99572.53;;;12.94;77.71
64644;BME280;51056;50.330;7.914;2023-10-31T15:50:46;99575.28;;;12.82;78.02
64644;BME280;51056;50.330;7.914;2023-10-31T15:53:49;99575.50;;;12.78;79.49
64644;BME280;51056;50.330;7.914;2023-10-31T15:56:53;99588.41;;;12.82;77.35
64644;BME280;51056;50.330;7.914;2023-10-31T15:59:56;99592.19;;;12.66;79.59
64644;BME280;51056;50.330;7.914;2023-10-31T16:02:59;99602.34;;;12.71;79.64
64644;BME280;51056;50.330;7.914;2023-10-31T16:06:03;99607.81;;;12.79;79.86
64644;BME280;51056;50.330;7.914;2023-10-31T16:09:07;99612.97;;;12.92;78.93
64644;BME280;51056;50.330;7.914;2023-10-31T16:12:11;99610.34;;;12.92;78.32
64644;BME280;51056;50.330;7.914;2023-10-31T16:15:14;99616.41;;;12.81;77.51
64644;BME280;51056;50.330;7.914;2023-10-31T16:18:18;99623.69;;;12.89;78.64
64644;BME280;51056;50.330;7.914;2023-10-31T16:21:21;99627.19;;;13.00;76.91
64644;BME280;51056;50.330;7.914;2023-10-31T16:24:24;99629.19;;;12.97;78.89
64644;BME280;51056;50.330;7.914;2023-10-31T16:27:28;99627.53;;;12.96;76.00
64644;BME280;51056;50.330;7.914;2023-10-31T16:30:31;99638.97;;;12.95;77.88
64644;BME280;51056;50.330;7.914;2023-10-31T16:33:33;99642.69;;;13.03;78.99
64644;BME280;51056;50.330;7.914;2023-10-31T16:36:38;99648.53;;;13.07;79.53
64644;BME280;51056;50.330;7.914;2023-10-31T16:39:41;99657.84;;;13.00;78.60
64644;BME280;51056;50.330;7.914;2023-10-31T16:42:44;99657.09;;;12.98;80.95
64644;BME280;51056;50.330;7.914;2023-10-31T16:45:48;99654.72;;;12.95;78.72
64644;BME280;51056;50.330;7.914;2023-10-31T16:48:51;99654.66;;;12.72;83.67
64644;BME280;51056;50.330;7.914;2023-10-31T16:51:57;99650.00;;;12.65;85.55
64644;BME280;51056;50.330;7.914;2023-10-31T16:55:01;99659.50;;;12.54;86.45
64644;BME280;51056;50.330;7.914;2023-10-31T16:58:04;99655.56;;;12.49;86.92
64644;BME280;51056;50.330;7.914;2023-10-31T17:01:12;99658.75;;;12.41;88.05
64644;BME280;51056;50.330;7.914;2023-10-31T17:04:16;99664.38;;;12.48;88.30
64644;BME280;51056;50.330;7.914;2023-10-31T17:07:20;99663.44;;;12.60;87.12
64644;BME280;51056;50.330;7.914;2023-10-31T17:10:23;99665.22;;;12.60;85.11
64644;BME280;51056;50.330;7.914;2023-10-31T17:13:26;99667.53;;;12.64;85.66
64644;BME280;51056;50.330;7.914;2023-10-31T17:16:29;99669.56;;;12.72;86.07
64644;BME280;51056;50.330;7.914;2023-10-31T17:19:32;99663.13;;;12.76;85.80
64644;BME280;51056;50.330;7.914;2023-10-31T17:22:35;99679.00;;;12.74;86.34
64644;BME280;51056;50.330;7.914;2023-10-31T17:25:41;99680.66;;;12.64;87.20
64644;BME280;51056;50.330;7.914;2023-10-31T17:28:45;99683.66;;;12.71;87.30
64644;BME280;51056;50.330;7.914;2023-10-31T17:31:47;99683.88;;;12.68;87.17
64644;BME280;51056;50.330;7.914;2023-10-31T17:34:51;99688.16;;;12.69;87.76
64644;BME280;51056;50.330;7.914;2023-10-31T17:37:54;99692.56;;;12.68;87.06
64644;BME280;51056;50.330;7.914;2023-10-31T17:41:00;99696.53;;;12.74;87.41
64644;BME280;51056;50.330;7.914;2023-10-31T17:44:05;99703.00;;;12.57;88.28
64644;BME280;51056;50.330;7.914;2023-10-31T17:47:08;99703.75;;;12.59;87.99
64644;BME280;51056;50.330;7.914;2023-10-31T17:50:11;99711.91;;;12.67;88.54
64644;BME280;51056;50.330;7.914;2023-10-31T17:53:14;99706.28;;;12.61;86.62
64644;BME280;51056;50.330;7.914;2023-10-31T17:56:19;99713.25;;;12.49;90.13
64644;BME280;51056;50.330;7.914;2023-10-31T17:59:22;99725.91;;;12.55;90.32
64644;BME280;51056;50.330;7.914;2023-10-31T18:02:26;99717.53;;;12.50;89.86
64644;BME280;51056;50.330;7.914;2023-10-31T18:05:30;99724.72;;;12.59;89.61
64644;BME280;51056;50.330;7.914;2023-10-31T18:08:34;99736.34;;;12.68;89.41
64644;BME280;51056;50.330;7.914;2023-10-31T18:11:39;99736.19;;;12.69;89.59
64644;BME280;51056;50.330;7.914;2023-10-31T18:14:42;99743.75;;;12.50;86.64
64644;BME280;51056;50.330;7.914;2023-10-31T18:17:47;99745.28;;;12.41;85.82
64644;BME280;51056;50.330;7.914;2023-10-31T18:20:50;99753.78;;;12.56;84.83
64644;BME280;51056;50.330;7.914;2023-10-31T18:23:57;99752.91;;;12.68;84.19